sensor_id;sensor_type;location;lat;lon;timestamp;temperature;humidity
802;DHT22;383;48.766;9.270;2023-04-23T00:02:19;15.40;81.00
802;DHT22;383;48.766;9.270;2023-04-23T00:04:50;15.40;80.00
802;DHT22;383;48.766;9.270;2023-04-23T00:07:18;15.50;78.60
802;DHT22;383;48.766;9.270;2023-04-23T00:09:45;15.60;78.10
802;DHT22;383;48.766;9.270;2023-04-23T00:12:12;15.50;78.60
802;DHT22;383;48.766;9.270;2023-04-23T00:14:39;15.50;77.30
802;DHT22;383;48.766;9.270;2023-04-23T00:17:06;15.60;77.70
802;DHT22;383;48.766;9.270;2023-04-23T00:19:34;15.60;77.00
802;DHT22;383;48.766;9.270;2023-04-23T00:22:01;15.60;77.40
802;DHT22;383;48.766;9.270;2023-04-23T00:24:27;15.60;77.30
802;DHT22;383;48.766;9.270;2023-04-23T00:26:56;15.60;76.70
802;DHT22;383;48.766;9.270;2023-04-23T00:29:22;15.60;76.70
802;DHT22;383;48.766;9.270;2023-04-23T00:31:49;15.60;77.10
802;DHT22;383;48.766;9.270;2023-04-23T00:34:16;15.60;76.70
802;DHT22;383;48.766;9.270;2023-04-23T00:36:44;15.60;77.10
802;DHT22;383;48.766;9.270;2023-04-23T00:39:13;15.60;77.40
802;DHT22;383;48.766;9.270;2023-04-23T00:41:41;15.60;77.80
802;DHT22;383;48.766;9.270;2023-04-23T00:44:08;15.70;77.40
802;DHT22;383;48.766;9.270;2023-04-23T00:46:36;15.70;77.10
802;DHT22;383;48.766;9.270;2023-04-23T00:49:03;15.70;76.70
802;DHT22;383;48.766;9.270;2023-04-23T00:51:30;15.80;76.90
802;DHT22;383;48.766;9.270;2023-04-23T00:53:58;15.80;76.70
802;DHT22;383;48.766;9.270;2023-04-23T00:56:26;15.70;77.40
802;DHT22;383;48.766;9.270;2023-04-23T00:58:53;15.70;78.10
802;DHT22;383;48.766;9.270;2023-04-23T01:01:20;15.70;79.40
802;DHT22;383;48.766;9.270;2023-04-23T01:03:48;15.70;80.20
802;DHT22;383;48.766;9.270;2023-04-23T01:06:16;15.60;81.10
802;DHT22;383;48.766;9.270;2023-04-23T01:08:44;15.60;81.50
802;DHT22;383;48.766;9.270;2023-04-23T01:11:13;15.40;82.60
802;DHT22;383;48.766;9.270;2023-04-23T01:13:41;15.30;83.20
802;DHT22;383;48.766;9.270;2023-04-23T01:16:08;15.30;84.30
802;DHT22;383;48.766;9.270;2023-04-23T01:18:35;15.30;85.10
802;DHT22;383;48.766;9.270;2023-04-23T01:21:03;15.20;86.10
802;DHT22;383;48.766;9.270;2023-04-23T01:23:31;15.30;87.60
802;DHT22;383;48.766;9.270;2023-04-23T01:25:58;15.20;87.60
802;DHT22;383;48.766;9.270;2023-04-23T01:28:25;15.10;88.90
802;DHT22;383;48.766;9.270;2023-04-23T01:30:52;15.10;89.70
802;DHT22;383;48.766;9.270;2023-04-23T01:33:19;15.00;87.60
802;DHT22;383;48.766;9.270;2023-04-23T01:35:46;14.90;89.00
802;DHT22;383;48.766;9.270;2023-04-23T01:38:14;14.90;90.20
802;DHT22;383;48.766;9.270;2023-04-23T01:40:43;14.90;90.40
802;DHT22;383;48.766;9.270;2023-04-23T01:43:09;14.90;91.00
802;DHT22;383;48.766;9.270;2023-04-23T01:45:36;14.90;91.00
802;DHT22;383;48.766;9.270;2023-04-23T01:48:03;14.80;91.30
802;DHT22;383;48.766;9.270;2023-04-23T01:50:30;14.80;91.40
802;DHT22;383;48.766;9.270;2023-04-23T01:52:57;14.80;91.50
802;DHT22;383;48.766;9.270;2023-04-23T01:55:23;14.70;91.90
802;DHT22;383;48.766;9.270;2023-04-23T01:57:51;14.70;92.30
802;DHT22;383;48.766;9.270;2023-04-23T02:00:18;14.70;92.50
802;DHT22;383;48.766;9.270;2023-04-23T02:02:45;14.70;92.50
802;DHT22;383;48.766;9.270;2023-04-23T02:05:14;14.70;92.50
802;DHT22;383;48.766;9.270;2023-04-23T02:07:42;14.70;92.50
802;DHT22;383;48.766;9.270;2023-04-23T02:10:10;14.70;92.50
802;DHT22;383;48.766;9.270;2023-04-23T02:12:37;14.70;92.50
802;DHT22;383;48.766;9.270;2023-04-23T02:15:06;14.80;92.70
802;DHT22;383;48.766;9.270;2023-04-23T02:17:33;14.80;92.70
802;DHT22;383;48.766;9.270;2023-04-23T02:20:00;14.80;92.70
802;DHT22;383;48.766;9.270;2023-04-23T02:22:27;14.70;92.60
802;DHT22;383;48.766;9.270;2023-04-23T02:24:55;14.70;93.00
802;DHT22;383;48.766;9.270;2023-04-23T02:27:22;14.70;93.30
802;DHT22;383;48.766;9.270;2023-04-23T02:29:49;14.70;93.50
802;DHT22;383;48.766;9.270;2023-04-23T02:32:17;14.60;94.10
802;DHT22;383;48.766;9.270;2023-04-23T02:34:44;14.70;94.50
802;DHT22;383;48.766;9.270;2023-04-23T02:37:11;14.70;94.50
802;DHT22;383;48.766;9.270;2023-04-23T02:39:37;14.70;94.60
802;DHT22;383;48.766;9.270;2023-04-23T02:42:04;14.70;94.60
802;DHT22;383;48.766;9.270;2023-04-23T02:44:31;14.70;94.60
802;DHT22;383;48.766;9.270;2023-04-23T02:46:58;14.80;94.30
802;DHT22;383;48.766;9.270;2023-04-23T02:49:26;14.60;94.50
802;DHT22;383;48.766;9.270;2023-04-23T02:51:53;14.50;95.00
802;DHT22;383;48.766;9.270;2023-04-23T02:54:19;14.30;95.60
802;DHT22;383;48.766;9.270;2023-04-23T02:56:46;14.30;96.10
802;DHT22;383;48.766;9.270;2023-04-23T02:59:13;14.20;96.40
802;DHT22;383;48.766;9.270;2023-04-23T03:01:40;14.10;96.60
802;DHT22;383;48.766;9.270;2023-04-23T03:04:06;14.10;96.70
802;DHT22;383;48.766;9.270;2023-04-23T03:06:34;14.00;97.40
802;DHT22;383;48.766;9.270;2023-04-23T03:09:02;14.00;97.60
802;DHT22;383;48.766;9.270;2023-04-23T03:11:30;14.00;97.70
802;DHT22;383;48.766;9.270;2023-04-23T03:13:57;14.00;97.60
802;DHT22;383;48.766;9.270;2023-04-23T03:16:23;14.00;97.70
802;DHT22;383;48.766;9.270;2023-04-23T03:18:51;14.10;97.60
802;DHT22;383;48.766;9.270;2023-04-23T03:21:23;14.10;97.50
802;DHT22;383;48.766;9.270;2023-04-23T03:23:54;14.10;97.30
802;DHT22;383;48.766;9.270;2023-04-23T03:26:20;14.10;97.10
802;DHT22;383;48.766;9.270;2023-04-23T03:28:47;14.10;97.10
802;DHT22;383;48.766;9.270;2023-04-23T03:31:14;14.10;97.00
802;DHT22;383;48.766;9.270;2023-04-23T03:33:40;14.10;96.80
802;DHT22;383;48.766;9.270;2023-04-23T03:36:07;14.10;96.90
802;DHT22;383;48.766;9.270;2023-04-23T03:38:34;14.10;96.90
802;DHT22;383;48.766;9.270;2023-04-23T03:41:02;14.10;96.50
802;DHT22;383;48.766;9.270;2023-04-23T03:43:29;14.10;96.50
802;DHT22;383;48.766;9.270;2023-04-23T03:45:55;14.00;96.40
802;DHT22;383;48.766;9.270;2023-04-23T03:48:22;13.90;96.70
802;DHT22;383;48.766;9.270;2023-04-23T03:50:49;13.80;97.00
802;DHT22;383;48.766;9.270;2023-04-23T03:53:15;13.70;97.10
802;DHT22;383;48.766;9.270;2023-04-23T03:55:43;13.60;97.60
802;DHT22;383;48.766;9.270;2023-04-23T03:58:11;13.60;97.90
802;DHT22;383;48.766;9.270;2023-04-23T04:00:37;13.60;98.10
802;DHT22;383;48.766;9.270;2023-04-23T04:03:04;13.60;98.00
802;DHT22;383;48.766;9.270;2023-04-23T04:05:31;13.60;98.10
802;DHT22;383;48.766;9.270;2023-04-23T04:07:57;13.60;98.00
802;DHT22;383;48.766;9.270;2023-04-23T04:10:24;13.60;97.20
802;DHT22;383;48.766;9.270;2023-04-23T04:12:51;13.60;97.00
802;DHT22;383;48.766;9.270;2023-04-23T04:15:21;13.60;96.40
802;DHT22;383;48.766;9.270;2023-04-23T04:17:47;13.60;96.50
802;DHT22;383;48.766;9.270;2023-04-23T04:20:14;13.60;96.60
802;DHT22;383;48.766;9.270;2023-04-23T04:22:41;13.60;96.70
802;DHT22;383;48.766;9.270;2023-04-23T04:25:08;13.60;96.80
802;DHT22;383;48.766;9.270;2023-04-23T04:27:35;13.60;96.70
802;DHT22;383;48.766;9.270;2023-04-23T04:30:02;13.70;96.40
802;DHT22;383;48.766;9.270;2023-04-23T04:32:31;13.70;96.60
802;DHT22;383;48.766;9.270;2023-04-23T04:34:57;13.70;96.00
802;DHT22;383;48.766;9.270;2023-04-23T04:37:24;13.70;96.00
802;DHT22;383;48.766;9.270;2023-04-23T04:39:52;13.60;96.40
802;DHT22;383;48.766;9.270;2023-04-23T04:42:19;13.60;96.30
802;DHT22;383;48.766;9.270;2023-04-23T04:44:46;13.60;96.40
802;DHT22;383;48.766;9.270;2023-04-23T04:47:12;13.60;96.30
802;DHT22;383;48.766;9.270;2023-04-23T04:49:42;13.60;96.10
802;DHT22;383;48.766;9.270;2023-04-23T04:52:09;13.60;96.10
802;DHT22;383;48.766;9.270;2023-04-23T04:54:35;13.50;96.50
802;DHT22;383;48.766;9.270;2023-04-23T04:57:02;13.50;96.60
802;DHT22;383;48.766;9.270;2023-04-23T04:59:29;13.60;96.70
802;DHT22;383;48.766;9.270;2023-04-23T05:01:56;13.60;96.50
802;DHT22;383;48.766;9.270;2023-04-23T05:04:23;13.60;96.50
802;DHT22;383;48.766;9.270;2023-04-23T05:06:51;13.70;96.30
802;DHT22;383;48.766;9.270;2023-04-23T05:09:17;13.70;96.30
802;DHT22;383;48.766;9.270;2023-04-23T05:11:44;13.70;96.50
802;DHT22;383;48.766;9.270;2023-04-23T05:14:11;13.80;96.20
802;DHT22;383;48.766;9.270;2023-04-23T05:16:37;13.80;96.20
802;DHT22;383;48.766;9.270;2023-04-23T05:19:04;13.80;96.10
802;DHT22;383;48.766;9.270;2023-04-23T05:21:32;13.90;95.90
802;DHT22;383;48.766;9.270;2023-04-23T05:24:01;13.90;96.10
802;DHT22;383;48.766;9.270;2023-04-23T05:26:28;14.10;95.90
802;DHT22;383;48.766;9.270;2023-04-23T05:28:54;14.20;95.60
802;DHT22;383;48.766;9.270;2023-04-23T05:31:21;14.30;95.20
802;DHT22;383;48.766;9.270;2023-04-23T05:33:48;14.40;94.70
802;DHT22;383;48.766;9.270;2023-04-23T05:36:15;14.40;93.70
802;DHT22;383;48.766;9.270;2023-04-23T05:38:46;14.40;94.00
802;DHT22;383;48.766;9.270;2023-04-23T05:41:14;14.50;93.90
802;DHT22;383;48.766;9.270;2023-04-23T05:43:41;14.60;93.50
802;DHT22;383;48.766;9.270;2023-04-23T05:46:08;14.70;93.20
802;DHT22;383;48.766;9.270;2023-04-23T05:48:35;14.60;93.10
802;DHT22;383;48.766;9.270;2023-04-23T05:51:02;14.70;93.50
802;DHT22;383;48.766;9.270;2023-04-23T05:53:29;14.80;92.70
802;DHT22;383;48.766;9.270;2023-04-23T05:55:55;14.70;92.40
802;DHT22;383;48.766;9.270;2023-04-23T05:58:24;14.80;91.60
802;DHT22;383;48.766;9.270;2023-04-23T06:00:51;14.80;91.60
802;DHT22;383;48.766;9.270;2023-04-23T06:03:18;14.80;91.20
802;DHT22;383;48.766;9.270;2023-04-23T06:05:45;14.90;90.80
802;DHT22;383;48.766;9.270;2023-04-23T06:08:12;14.90;90.70
802;DHT22;383;48.766;9.270;2023-04-23T06:10:38;14.80;90.90
802;DHT22;383;48.766;9.270;2023-04-23T06:13:05;14.80;90.70
802;DHT22;383;48.766;9.270;2023-04-23T06:15:33;14.90;90.20
802;DHT22;383;48.766;9.270;2023-04-23T06:18:00;15.00;90.50
802;DHT22;383;48.766;9.270;2023-04-23T06:20:26;15.20;90.00
802;DHT22;383;48.766;9.270;2023-04-23T06:22:53;15.30;88.60
802;DHT22;383;48.766;9.270;2023-04-23T06:25:20;15.40;87.40
802;DHT22;383;48.766;9.270;2023-04-23T06:27:47;15.40;87.40
802;DHT22;383;48.766;9.270;2023-04-23T06:30:14;15.60;87.70
802;DHT22;383;48.766;9.270;2023-04-23T06:32:42;15.70;86.80
802;DHT22;383;48.766;9.270;2023-04-23T06:35:09;15.80;87.20
802;DHT22;383;48.766;9.270;2023-04-23T06:37:36;15.80;87.60
802;DHT22;383;48.766;9.270;2023-04-23T06:40:06;15.90;87.40
802;DHT22;383;48.766;9.270;2023-04-23T06:42:35;16.00;86.30
802;DHT22;383;48.766;9.270;2023-04-23T06:45:13;16.00;86.30
802;DHT22;383;48.766;9.270;2023-04-23T06:47:42;16.10;85.60
802;DHT22;383;48.766;9.270;2023-04-23T06:50:17;16.00;86.00
802;DHT22;383;48.766;9.270;2023-04-23T06:52:53;16.00;85.60
802;DHT22;383;48.766;9.270;2023-04-23T06:55:23;16.10;84.80
802;DHT22;383;48.766;9.270;2023-04-23T06:57:54;16.10;86.00
802;DHT22;383;48.766;9.270;2023-04-23T07:00:21;16.10;85.90
802;DHT22;383;48.766;9.270;2023-04-23T07:03:02;16.20;85.70
802;DHT22;383;48.766;9.270;2023-04-23T07:05:29;16.30;83.70
802;DHT22;383;48.766;9.270;2023-04-23T07:07:56;16.30;83.70
802;DHT22;383;48.766;9.270;2023-04-23T07:10:25;16.40;83.70
802;DHT22;383;48.766;9.270;2023-04-23T07:13:06;16.40;83.00
802;DHT22;383;48.766;9.270;2023-04-23T07:15:36;16.50;83.40
802;DHT22;383;48.766;9.270;2023-04-23T07:18:05;16.70;82.40
802;DHT22;383;48.766;9.270;2023-04-23T07:20:37;16.80;81.90
802;DHT22;383;48.766;9.270;2023-04-23T07:23:10;16.80;81.90
802;DHT22;383;48.766;9.270;2023-04-23T07:25:38;16.90;80.60
802;DHT22;383;48.766;9.270;2023-04-23T07:28:05;17.00;79.40
802;DHT22;383;48.766;9.270;2023-04-23T07:30:32;16.90;79.40
802;DHT22;383;48.766;9.270;2023-04-23T07:33:01;17.00;80.00
802;DHT22;383;48.766;9.270;2023-04-23T07:35:32;17.20;78.60
802;DHT22;383;48.766;9.270;2023-04-23T07:38:01;17.40;79.10
802;DHT22;383;48.766;9.270;2023-04-23T07:40:28;17.50;78.20
802;DHT22;383;48.766;9.270;2023-04-23T07:42:55;17.60;76.90
802;DHT22;383;48.766;9.270;2023-04-23T07:45:23;17.60;76.10
802;DHT22;383;48.766;9.270;2023-04-23T07:47:50;17.60;76.30
802;DHT22;383;48.766;9.270;2023-04-23T07:50:17;17.50;75.40
802;DHT22;383;48.766;9.270;2023-04-23T07:52:45;17.50;75.00
802;DHT22;383;48.766;9.270;2023-04-23T07:55:12;17.50;74.60
802;DHT22;383;48.766;9.270;2023-04-23T07:57:38;17.50;75.20
802;DHT22;383;48.766;9.270;2023-04-23T08:00:06;17.40;75.20
802;DHT22;383;48.766;9.270;2023-04-23T08:02:35;17.50;75.20
802;DHT22;383;48.766;9.270;2023-04-23T08:05:02;17.60;74.60
802;DHT22;383;48.766;9.270;2023-04-23T08:07:29;17.70;73.40
802;DHT22;383;48.766;9.270;2023-04-23T08:09:57;17.80;72.30
802;DHT22;383;48.766;9.270;2023-04-23T08:12:28;18.00;72.80
802;DHT22;383;48.766;9.270;2023-04-23T08:14:55;18.10;70.00
802;DHT22;383;48.766;9.270;2023-04-23T08:17:22;18.20;70.40
802;DHT22;383;48.766;9.270;2023-04-23T08:19:52;18.30;70.70
802;DHT22;383;48.766;9.270;2023-04-23T08:22:21;18.40;69.30
802;DHT22;383;48.766;9.270;2023-04-23T08:24:48;18.50;69.30
802;DHT22;383;48.766;9.270;2023-04-23T08:27:16;18.70;72.30
802;DHT22;383;48.766;9.270;2023-04-23T08:29:42;18.90;70.10
802;DHT22;383;48.766;9.270;2023-04-23T08:32:09;19.20;68.70
802;DHT22;383;48.766;9.270;2023-04-23T08:34:36;19.20;67.50
802;DHT22;383;48.766;9.270;2023-04-23T08:37:03;19.50;68.70
802;DHT22;383;48.766;9.270;2023-04-23T08:39:29;19.60;66.40
802;DHT22;383;48.766;9.270;2023-04-23T08:42:04;19.80;66.70
802;DHT22;383;48.766;9.270;2023-04-23T08:44:35;19.90;65.00
802;DHT22;383;48.766;9.270;2023-04-23T08:47:04;20.00;64.60
802;DHT22;383;48.766;9.270;2023-04-23T08:49:32;20.10;64.10
802;DHT22;383;48.766;9.270;2023-04-23T08:52:07;20.30;62.60
802;DHT22;383;48.766;9.270;2023-04-23T08:54:36;20.30;60.20
802;DHT22;383;48.766;9.270;2023-04-23T08:57:06;20.30;60.10
802;DHT22;383;48.766;9.270;2023-04-23T08:59:36;20.20;60.40
802;DHT22;383;48.766;9.270;2023-04-23T09:02:05;20.10;58.00
802;DHT22;383;48.766;9.270;2023-04-23T09:04:34;20.10;60.10
802;DHT22;383;48.766;9.270;2023-04-23T09:07:01;20.00;58.50
802;DHT22;383;48.766;9.270;2023-04-23T09:09:29;19.90;61.30
802;DHT22;383;48.766;9.270;2023-04-23T09:11:56;20.00;62.60
802;DHT22;383;48.766;9.270;2023-04-23T09:14:24;20.10;61.10
802;DHT22;383;48.766;9.270;2023-04-23T09:16:52;20.30;61.90
802;DHT22;383;48.766;9.270;2023-04-23T09:19:20;20.50;61.70
802;DHT22;383;48.766;9.270;2023-04-23T09:21:47;20.60;58.50
802;DHT22;383;48.766;9.270;2023-04-23T09:24:13;20.60;58.60
802;DHT22;383;48.766;9.270;2023-04-23T09:26:45;20.60;58.70
802;DHT22;383;48.766;9.270;2023-04-23T09:29:13;20.40;58.30
802;DHT22;383;48.766;9.270;2023-04-23T09:31:43;20.40;58.50
802;DHT22;383;48.766;9.270;2023-04-23T09:34:13;20.30;59.30
802;DHT22;383;48.766;9.270;2023-04-23T09:36:41;20.20;59.20
802;DHT22;383;48.766;9.270;2023-04-23T09:39:11;20.40;58.00
802;DHT22;383;48.766;9.270;2023-04-23T09:41:38;20.40;60.40
802;DHT22;383;48.766;9.270;2023-04-23T09:44:05;20.50;60.00
802;DHT22;383;48.766;9.270;2023-04-23T09:46:34;20.60;60.50
802;DHT22;383;48.766;9.270;2023-04-23T09:49:02;20.80;59.50
802;DHT22;383;48.766;9.270;2023-04-23T09:51:31;21.00;59.50
802;DHT22;383;48.766;9.270;2023-04-23T09:54:00;21.00;58.30
802;DHT22;383;48.766;9.270;2023-04-23T09:56:29;21.00;56.70
802;DHT22;383;48.766;9.270;2023-04-23T09:58:55;20.90;59.70
802;DHT22;383;48.766;9.270;2023-04-23T10:01:27;20.70;60.50
802;DHT22;383;48.766;9.270;2023-04-23T10:03:54;20.60;59.50
802;DHT22;383;48.766;9.270;2023-04-23T10:06:26;20.50;60.50
802;DHT22;383;48.766;9.270;2023-04-23T10:08:56;20.40;59.60
802;DHT22;383;48.766;9.270;2023-04-23T10:11:23;20.40;60.80
802;DHT22;383;48.766;9.270;2023-04-23T10:13:52;20.50;60.40
802;DHT22;383;48.766;9.270;2023-04-23T10:16:21;20.80;60.90
802;DHT22;383;48.766;9.270;2023-04-23T10:18:50;21.00;58.80
802;DHT22;383;48.766;9.270;2023-04-23T10:21:19;21.00;58.50
802;DHT22;383;48.766;9.270;2023-04-23T10:23:47;21.20;58.10
802;DHT22;383;48.766;9.270;2023-04-23T10:26:19;21.20;56.40
802;DHT22;383;48.766;9.270;2023-04-23T10:28:49;21.20;57.80
802;DHT22;383;48.766;9.270;2023-04-23T10:31:19;21.30;57.40
802;DHT22;383;48.766;9.270;2023-04-23T10:33:47;21.40;58.00
802;DHT22;383;48.766;9.270;2023-04-23T10:36:15;21.50;58.20
802;DHT22;383;48.766;9.270;2023-04-23T10:38:44;21.60;57.00
802;DHT22;383;48.766;9.270;2023-04-23T10:41:14;21.70;54.00
802;DHT22;383;48.766;9.270;2023-04-23T10:43:43;22.00;54.30
802;DHT22;383;48.766;9.270;2023-04-23T10:46:27;22.10;54.60
802;DHT22;383;48.766;9.270;2023-04-23T10:49:04;22.30;55.40
802;DHT22;383;48.766;9.270;2023-04-23T10:51:32;22.30;52.80
802;DHT22;383;48.766;9.270;2023-04-23T10:53:59;22.40;54.70
802;DHT22;383;48.766;9.270;2023-04-23T10:56:27;22.60;51.50
802;DHT22;383;48.766;9.270;2023-04-23T10:58:55;22.70;52.90
802;DHT22;383;48.766;9.270;2023-04-23T11:01:23;22.80;52.60
802;DHT22;383;48.766;9.270;2023-04-23T11:03:51;22.80;50.90
802;DHT22;383;48.766;9.270;2023-04-23T11:06:19;22.80;50.70
802;DHT22;383;48.766;9.270;2023-04-23T11:09:27;22.70;51.00
802;DHT22;383;48.766;9.270;2023-04-23T11:11:54;22.80;51.40
802;DHT22;383;48.766;9.270;2023-04-23T11:14:32;22.90;50.80
802;DHT22;383;48.766;9.270;2023-04-23T11:16:59;23.00;49.50
802;DHT22;383;48.766;9.270;2023-04-23T11:19:26;23.00;49.90
802;DHT22;383;48.766;9.270;2023-04-23T11:21:58;23.00;49.80
802;DHT22;383;48.766;9.270;2023-04-23T11:24:27;23.20;49.50
802;DHT22;383;48.766;9.270;2023-04-23T11:26:54;23.30;49.80
802;DHT22;383;48.766;9.270;2023-04-23T11:29:22;23.30;49.00
802;DHT22;383;48.766;9.270;2023-04-23T11:31:50;23.40;48.80
802;DHT22;383;48.766;9.270;2023-04-23T11:34:17;23.50;48.30
802;DHT22;383;48.766;9.270;2023-04-23T11:36:46;23.30;49.20
802;DHT22;383;48.766;9.270;2023-04-23T11:39:13;23.30;48.40
802;DHT22;383;48.766;9.270;2023-04-23T11:41:40;23.60;48.60
802;DHT22;383;48.766;9.270;2023-04-23T11:44:08;23.70;49.30
802;DHT22;383;48.766;9.270;2023-04-23T11:46:36;23.80;49.00
802;DHT22;383;48.766;9.270;2023-04-23T11:49:04;23.80;49.20
802;DHT22;383;48.766;9.270;2023-04-23T11:51:33;24.00;48.20
802;DHT22;383;48.766;9.270;2023-04-23T11:54:04;24.10;47.60
802;DHT22;383;48.766;9.270;2023-04-23T11:56:31;24.20;48.10
802;DHT22;383;48.766;9.270;2023-04-23T11:59:00;23.90;48.10
802;DHT22;383;48.766;9.270;2023-04-23T12:01:39;24.10;48.30
802;DHT22;383;48.766;9.270;2023-04-23T12:04:11;24.20;46.80
802;DHT22;383;48.766;9.270;2023-04-23T12:06:40;24.20;48.40
802;DHT22;383;48.766;9.270;2023-04-23T12:09:07;24.20;45.50
802;DHT22;383;48.766;9.270;2023-04-23T12:11:35;24.20;48.20
802;DHT22;383;48.766;9.270;2023-04-23T12:14:02;24.00;48.80
802;DHT22;383;48.766;9.270;2023-04-23T12:16:36;23.90;48.60
802;DHT22;383;48.766;9.270;2023-04-23T12:19:06;23.90;48.40
802;DHT22;383;48.766;9.270;2023-04-23T12:21:45;23.80;48.40
802;DHT22;383;48.766;9.270;2023-04-23T12:24:12;23.70;49.20
802;DHT22;383;48.766;9.270;2023-04-23T12:26:40;23.70;48.80
802;DHT22;383;48.766;9.270;2023-04-23T12:29:07;23.60;48.90
802;DHT22;383;48.766;9.270;2023-04-23T12:31:36;23.40;48.80
802;DHT22;383;48.766;9.270;2023-04-23T12:34:05;23.40;49.50
802;DHT22;383;48.766;9.270;2023-04-23T12:36:35;23.50;49.50
802;DHT22;383;48.766;9.270;2023-04-23T12:39:19;23.70;49.40
802;DHT22;383;48.766;9.270;2023-04-23T12:41:45;23.80;48.30
802;DHT22;383;48.766;9.270;2023-04-23T12:44:13;23.90;50.00
802;DHT22;383;48.766;9.270;2023-04-23T12:46:40;23.90;48.80
802;DHT22;383;48.766;9.270;2023-04-23T12:49:07;23.90;49.70
802;DHT22;383;48.766;9.270;2023-04-23T12:51:35;23.90;48.90
802;DHT22;383;48.766;9.270;2023-04-23T12:54:02;23.90;49.40
802;DHT22;383;48.766;9.270;2023-04-23T12:56:28;23.90;49.00
802;DHT22;383;48.766;9.270;2023-04-23T12:58:55;23.90;47.40
802;DHT22;383;48.766;9.270;2023-04-23T13:01:22;23.80;48.10
802;DHT22;383;48.766;9.270;2023-04-23T13:03:48;23.70;47.70
802;DHT22;383;48.766;9.270;2023-04-23T13:06:16;23.80;48.20
802;DHT22;383;48.766;9.270;2023-04-23T13:08:44;23.80;48.20
802;DHT22;383;48.766;9.270;2023-04-23T13:11:10;23.80;48.60
802;DHT22;383;48.766;9.270;2023-04-23T13:13:37;23.80;48.60
802;DHT22;383;48.766;9.270;2023-04-23T13:16:04;23.90;48.60
802;DHT22;383;48.766;9.270;2023-04-23T13:18:31;24.10;48.10
802;DHT22;383;48.766;9.270;2023-04-23T13:20:57;24.20;47.90
802;DHT22;383;48.766;9.270;2023-04-23T13:23:24;24.30;48.30
802;DHT22;383;48.766;9.270;2023-04-23T13:25:52;24.20;47.10
802;DHT22;383;48.766;9.270;2023-04-23T13:28:19;23.90;48.40
802;DHT22;383;48.766;9.270;2023-04-23T13:30:45;23.70;48.20
802;DHT22;383;48.766;9.270;2023-04-23T13:33:12;23.60;49.30
802;DHT22;383;48.766;9.270;2023-04-23T13:35:39;23.40;48.90
802;DHT22;383;48.766;9.270;2023-04-23T13:38:06;23.30;48.30
802;DHT22;383;48.766;9.270;2023-04-23T13:40:32;23.40;47.90
802;DHT22;383;48.766;9.270;2023-04-23T13:43:01;23.80;48.30
802;DHT22;383;48.766;9.270;2023-04-23T13:45:27;24.00;48.40
802;DHT22;383;48.766;9.270;2023-04-23T13:47:54;24.00;47.40
802;DHT22;383;48.766;9.270;2023-04-23T13:50:21;24.20;47.70
802;DHT22;383;48.766;9.270;2023-04-23T13:52:48;24.40;47.10
802;DHT22;383;48.766;9.270;2023-04-23T13:55:14;24.40;46.90
802;DHT22;383;48.766;9.270;2023-04-23T13:57:41;24.40;45.50
802;DHT22;383;48.766;9.270;2023-04-23T14:00:10;24.60;45.30
802;DHT22;383;48.766;9.270;2023-04-23T14:02:37;25.10;43.60
802;DHT22;383;48.766;9.270;2023-04-23T14:05:04;25.20;43.10
802;DHT22;383;48.766;9.270;2023-04-23T14:07:33;24.80;42.20
802;DHT22;383;48.766;9.270;2023-04-23T14:10:00;24.70;42.50
802;DHT22;383;48.766;9.270;2023-04-23T14:12:27;25.10;43.70
802;DHT22;383;48.766;9.270;2023-04-23T14:14:54;25.40;43.60
802;DHT22;383;48.766;9.270;2023-04-23T14:17:22;25.70;42.80
802;DHT22;383;48.766;9.270;2023-04-23T14:19:48;25.90;44.50
802;DHT22;383;48.766;9.270;2023-04-23T14:22:15;26.00;43.10
802;DHT22;383;48.766;9.270;2023-04-23T14:24:44;25.90;43.70
802;DHT22;383;48.766;9.270;2023-04-23T14:27:12;26.00;43.50
802;DHT22;383;48.766;9.270;2023-04-23T14:29:40;25.80;42.80
802;DHT22;383;48.766;9.270;2023-04-23T14:32:10;25.60;44.30
802;DHT22;383;48.766;9.270;2023-04-23T14:34:38;25.60;44.00
802;DHT22;383;48.766;9.270;2023-04-23T14:37:05;25.30;44.80
802;DHT22;383;48.766;9.270;2023-04-23T14:39:32;25.20;45.50
802;DHT22;383;48.766;9.270;2023-04-23T14:41:59;25.30;45.60
802;DHT22;383;48.766;9.270;2023-04-23T14:44:27;25.40;45.20
802;DHT22;383;48.766;9.270;2023-04-23T14:46:54;25.30;44.80
802;DHT22;383;48.766;9.270;2023-04-23T14:49:21;25.10;45.00
802;DHT22;383;48.766;9.270;2023-04-23T14:51:49;24.80;45.80
802;DHT22;383;48.766;9.270;2023-04-23T14:54:18;24.40;44.70
802;DHT22;383;48.766;9.270;2023-04-23T14:56:45;24.20;45.00
802;DHT22;383;48.766;9.270;2023-04-23T14:59:13;24.20;45.60
802;DHT22;383;48.766;9.270;2023-04-23T15:01:43;24.00;45.30
802;DHT22;383;48.766;9.270;2023-04-23T15:04:10;23.90;45.50
802;DHT22;383;48.766;9.270;2023-04-23T15:06:37;23.80;45.60
802;DHT22;383;48.766;9.270;2023-04-23T15:09:09;23.80;45.70
802;DHT22;383;48.766;9.270;2023-04-23T15:11:36;24.00;46.20
802;DHT22;383;48.766;9.270;2023-04-23T15:14:07;24.10;45.50
802;DHT22;383;48.766;9.270;2023-04-23T15:16:35;24.20;46.30
802;DHT22;383;48.766;9.270;2023-04-23T15:19:03;24.20;45.60
802;DHT22;383;48.766;9.270;2023-04-23T15:21:30;24.20;45.10
802;DHT22;383;48.766;9.270;2023-04-23T15:23:57;24.10;45.80
802;DHT22;383;48.766;9.270;2023-04-23T15:26:25;24.10;47.20
802;DHT22;383;48.766;9.270;2023-04-23T15:28:52;24.00;46.80
802;DHT22;383;48.766;9.270;2023-04-23T15:31:19;23.90;46.70
802;DHT22;383;48.766;9.270;2023-04-23T15:33:51;23.80;47.30
802;DHT22;383;48.766;9.270;2023-04-23T15:36:19;23.80;48.60
802;DHT22;383;48.766;9.270;2023-04-23T15:38:46;23.90;47.80
802;DHT22;383;48.766;9.270;2023-04-23T15:41:13;23.70;47.40
802;DHT22;383;48.766;9.270;2023-04-23T15:43:44;23.40;45.00
802;DHT22;383;48.766;9.270;2023-04-23T15:46:13;23.00;49.00
802;DHT22;383;48.766;9.270;2023-04-23T15:48:40;22.00;53.10
802;DHT22;383;48.766;9.270;2023-04-23T15:51:07;21.20;57.60
802;DHT22;383;48.766;9.270;2023-04-23T15:53:34;20.70;59.30
802;DHT22;383;48.766;9.270;2023-04-23T15:56:01;20.10;65.50
802;DHT22;383;48.766;9.270;2023-04-23T15:58:28;19.90;65.90
802;DHT22;383;48.766;9.270;2023-04-23T16:00:56;19.70;64.70
802;DHT22;383;48.766;9.270;2023-04-23T16:03:23;19.30;68.90
802;DHT22;383;48.766;9.270;2023-04-23T16:05:50;19.40;67.50
802;DHT22;383;48.766;9.270;2023-04-23T16:08:17;19.40;70.30
802;DHT22;383;48.766;9.270;2023-04-23T16:10:43;19.60;68.40
802;DHT22;383;48.766;9.270;2023-04-23T16:13:10;19.70;66.70
802;DHT22;383;48.766;9.270;2023-04-23T16:15:37;19.70;70.70
802;DHT22;383;48.766;9.270;2023-04-23T16:18:05;19.80;67.60
802;DHT22;383;48.766;9.270;2023-04-23T16:20:33;19.60;68.00
802;DHT22;383;48.766;9.270;2023-04-23T16:23:00;19.60;69.50
802;DHT22;383;48.766;9.270;2023-04-23T16:25:27;19.50;70.70
802;DHT22;383;48.766;9.270;2023-04-23T16:27:55;19.50;69.20
802;DHT22;383;48.766;9.270;2023-04-23T16:30:22;19.50;67.00
802;DHT22;383;48.766;9.270;2023-04-23T16:32:49;19.60;65.80
802;DHT22;383;48.766;9.270;2023-04-23T16:35:17;19.60;66.20
802;DHT22;383;48.766;9.270;2023-04-23T16:37:44;19.50;67.90
802;DHT22;383;48.766;9.270;2023-04-23T16:40:11;19.10;70.70